Cape Brindisi — V7IV5 — position and weather

sailwx.info

Track history (hours):
 
Tides and Currents Weather Stations Pressure Air Temp Water Temp Dewpoint Dewpoint Depression Visibility Wind Speed Wind Dir Waves Ship Positions

Cape Brindisi

Last reported at 2018-Jun-20 06:00 UTC. Time now 2018-Jun-23 19:12 UTC.
Position N 36°18' E 014°20'.

Length 274 m; draft 9.2 m.

Type: Tanker. MMSI: 538090189.

Date/timePositionNaut miles runAvg speedWind from/ knotsBaromVisibWave heightAir tempDewpointWater temp
2018-Jun-20 06:00N 36°18' E 014°20'713.6
2018-Jun-20 05:30N 36°20' E 014°12'713.9
2018-Jun-20 05:00N 36°23' E 014°04'713.8
2018-Jun-20 04:30N 36°26' E 013°56'713.8
2018-Jun-20 03:59N 36°29' E 013°48'713.6
2018-Jun-20 03:30N 36°31' E 013°41'713.5
2018-Jun-20 03:00N 36°34' E 013°33'713.7
2018-Jun-20 02:30N 36°36' E 013°25'713.5
2018-Jun-20 02:00N 36°39' E 013°17'713.5
2018-Jun-20 01:30N 36°41' E 013°09'713.2
2018-Jun-20 01:01N 36°42' E 013°01'55612.7
2018-Jun-18 05:20N 37°30' E 001°26'412.8
2018-Jun-18 05:00N 37°30' E 001°21'612.8
2018-Jun-18 04:30N 37°30' E 001°13'712.9
2018-Jun-18 03:59N 37°30' E 001°05'1013.0
2018-Jun-18 03:14N 37°29' E 000°52'413.1
2018-Jun-18 02:57N 37°29' E 000°48'613.5
2018-Jun-18 02:29N 37°29' E 000°40'713.5
2018-Jun-18 02:00N 37°29' E 000°32'713.4
2018-Jun-18 01:30N 37°29' E 000°23'713.4
2018-Jun-18 00:59N 37°29' E 000°15'713.5
2018-Jun-18 00:30N 37°29' E 000°06'713.2
2018-Jun-18 00:00N 37°28' W 000°02'713.3
2018-Jun-17 23:30N 37°28' W 000°10'713.9
2018-Jun-17 23:00N 37°28' W 000°19'714.0
2018-Jun-17 22:30N 37°28' W 000°28'713.9
2018-Jun-17 21:59N 37°28' W 000°37'713.6
2018-Jun-17 21:30N 37°29' W 000°45'612.3
2018-Jun-17 20:59N 37°30' W 000°53'510.9
2018-Jun-17 20:30N 37°31' W 000°59'3 6.2
2018-Jun-17 20:00N 37°34' W 000°59'1 0.0
2018-Jun-16 07:12N 37°34' W 000°58'0 0.2
2018-Jun-16 06:52N 37°34' W 000°58'1 2.0
2018-Jun-16 06:18N 37°34' W 000°59'1 2.7
2018-Jun-16 06:00N 37°33' W 000°60'2 3.8
2018-Jun-16 05:27N 37°33' W 001°02'1 0.1
2018-Jun-15 18:22N 37°32' W 001°04'0 0.1
2018-Jun-15 15:59N 37°32' W 001°04'4 7.6
2018-Jun-15 15:24N 37°28' W 001°05'512.3
2018-Jun-15 15:00N 37°24' W 001°09'612.4
2018-Jun-15 14:30N 37°19' W 001°14'20712.0
2018-Jun-14 21:17N 36°01' W 005°13'516.3
2018-Jun-14 21:00N 35°60' W 005°18'816.3
2018-Jun-14 20:30N 35°57' W 005°27'815.2
2018-Jun-14 19:58N 35°55' W 005°37'714.7
2018-Jun-14 19:29N 35°54' W 005°46'9413.4
2018-Jun-14 12:29N 35°56' W 007°42'612.9
2018-Jun-14 12:00N 35°56' W 007°50'812.9
2018-Jun-14 11:25N 35°57' W 007°59'812.6
2018-Jun-14 10:47N 35°57' W 008°09'512.6
2018-Jun-14 10:24N 35°57' W 008°15'512.9
2018-Jun-14 10:00N 35°57' W 008°21'712.3
2018-Jun-14 09:27N 35°57' W 008°30'7411.9
2018-Jun-14 03:13N 36°00' W 010°01'311.9
2018-Jun-14 02:59N 36°00' W 010°04'5211.8
2018-Jun-13 22:33N 36°02' W 011°09'111.6
2018-Jun-13 22:28N 36°02' W 011°10'5811.7
2018-Jun-13 17:31N 36°03' W 012°22'212.2
2018-Jun-13 17:19N 36°04' W 012°25'612.0
2018-Jun-13 16:47N 36°04' W 012°33'811.9
2018-Jun-13 16:05N 36°04' W 012°43'112.0
2018-Jun-13 16:00N 36°04' W 012°44'2411.9
2018-Jun-13 13:58N 36°05' W 013°14'611.8
2018-Jun-13 13:26N 36°05' W 013°22'712.0
2018-Jun-13 12:51N 36°05' W 013°30'40912.4
2018-Jun-12 03:51N 36°19' W 021°57'1312.3
2018-Jun-12 02:49N 36°19' W 022°13'412.5
2018-Jun-12 02:30N 36°19' W 022°17'612.6
2018-Jun-12 02:00N 36°20' W 022°25'712.6
2018-Jun-12 01:25N 36°20' W 022°34'612.3
2018-Jun-12 00:56N 36°20' W 022°42'512.4
2018-Jun-12 00:30N 36°20' W 022°48'612.5
2018-Jun-12 00:01N 36°20' W 022°56'612.7
2018-Jun-11 23:30N 36°21' W 023°04'612.4
2018-Jun-11 23:00N 36°21' W 023°12'612.2
2018-Jun-11 22:30N 36°21' W 023°19'612.5
2018-Jun-11 22:00N 36°21' W 023°27'612.8
2018-Jun-11 21:30N 36°21' W 023°35'612.7
2018-Jun-11 21:00N 36°21' W 023°43'612.6
2018-Jun-11 20:30N 36°21' W 023°51'612.5
2018-Jun-11 20:00N 36°22' W 023°58'612.3
2018-Jun-11 19:30N 36°22' W 024°06'612.4
2018-Jun-11 19:00N 36°22' W 024°14'612.4
2018-Jun-11 18:30N 36°23' W 024°21'612.2
2018-Jun-11 18:00N 36°23' W 024°29'612.3
2018-Jun-11 17:30N 36°23' W 024°37'612.2
2018-Jun-11 17:00N 36°23' W 024°44'612.1
2018-Jun-11 16:30N 36°24' W 024°52'612.1
2018-Jun-11 16:00N 36°24' W 024°59'612.4
2018-Jun-11 15:30N 36°24' W 025°07'612.2
2018-Jun-11 15:00N 36°24' W 025°14'611.9
2018-Jun-11 14:30N 36°25' W 025°22'612.0
2018-Jun-11 14:00N 36°25' W 025°29'612.3
2018-Jun-11 13:30N 36°25' W 025°37'612.3
2018-Jun-11 13:00N 36°26' W 025°45'612.4
2018-Jun-11 12:30N 36°26' W 025°52'612.5
2018-Jun-11 12:00N 36°26' W 025°60'612.4
2018-Jun-11 11:30N 36°27' W 026°08'612.5
2018-Jun-11 11:00N 36°27' W 026°15'712.5
2018-Jun-11 10:26N 36°27' W 026°24'612.4
2018-Jun-11 09:58N 36°27' W 026°32'612.5
2018-Jun-11 09:30N 36°28' W 026°39'612.8
2018-Jun-11 09:00N 36°28' W 026°47'612.6
2018-Jun-11 08:30N 36°29' W 026°54'612.2
2018-Jun-11 08:00N 36°29' W 027°02'612.5
2018-Jun-11 07:30N 36°29' W 027°10'612.8
2018-Jun-11 07:00N 36°29' W 027°18'612.7
2018-Jun-11 06:30N 36°29' W 027°26'612.6
2018-Jun-11 06:00N 36°30' W 027°33'612.5
2018-Jun-11 05:30N 36°30' W 027°41'612.7
2018-Jun-11 05:00N 36°30' W 027°49'612.8
2018-Jun-11 04:30N 36°31' W 027°57'712.8
2018-Jun-11 04:00N 36°31' W 028°05'612.7
2018-Jun-11 03:29N 36°31' W 028°13'612.4
2018-Jun-11 03:00N 36°31' W 028°21'612.4
2018-Jun-11 02:30N 36°31' W 028°28'612.6
2018-Jun-11 02:00N 36°31' W 028°36'612.8
2018-Jun-11 01:30N 36°32' W 028°44'712.9
2018-Jun-11 01:00N 36°32' W 028°52'612.8
2018-Jun-11 00:30N 36°32' W 029°00'612.9
2018-Jun-11 00:00N 36°32' W 029°08'613.0
2018-Jun-10 23:31N 36°32' W 029°16'712.9
2018-Jun-10 23:00N 36°32' W 029°24'712.8
2018-Jun-10 22:27N 36°32' W 029°33'612.5
2018-Jun-10 22:00N 36°32' W 029°40'712.8
2018-Jun-10 21:26N 36°33' W 029°49'712.7
2018-Jun-10 20:54N 36°33' W 029°58'712.5
2018-Jun-10 20:21N 36°33' W 030°06'612.4
2018-Jun-10 19:52N 36°33' W 030°14'4212.8
2018-Jun-10 16:37N 36°34' W 031°06'9712.6
2018-Jun-10 08:54N 36°33' W 033°07'  
Track history (hours):
 
Tides and Currents Weather Stations Pressure Air Temp Water Temp Dewpoint Dewpoint Depression Visibility Wind Speed Wind Dir Waves Ship Positions

Cape Brindisi

Last reported at 2018-Jun-20 06:00 UTC. Time now 2018-Jun-23 19:12 UTC.
Position N 36°18' E 014°20'.

Length 274 m; draft 9.2 m.

Type: Tanker. MMSI: 538090189.

Date/timePositionNaut miles runAvg speedWind from/ knotsBaromVisibWave heightAir tempDewpointWater temp
2018-Jun-20 06:00N 36°18' E 014°20'713.6
2018-Jun-20 05:30N 36°20' E 014°12'713.9
2018-Jun-20 05:00N 36°23' E 014°04'713.8
2018-Jun-20 04:30N 36°26' E 013°56'713.8
2018-Jun-20 03:59N 36°29' E 013°48'713.6
2018-Jun-20 03:30N 36°31' E 013°41'713.5
2018-Jun-20 03:00N 36°34' E 013°33'713.7
2018-Jun-20 02:30N 36°36' E 013°25'713.5
2018-Jun-20 02:00N 36°39' E 013°17'713.5
2018-Jun-20 01:30N 36°41' E 013°09'713.2
2018-Jun-20 01:01N 36°42' E 013°01'55612.7
2018-Jun-18 05:20N 37°30' E 001°26'412.8
2018-Jun-18 05:00N 37°30' E 001°21'612.8
2018-Jun-18 04:30N 37°30' E 001°13'712.9
2018-Jun-18 03:59N 37°30' E 001°05'1013.0
2018-Jun-18 03:14N 37°29' E 000°52'413.1
2018-Jun-18 02:57N 37°29' E 000°48'613.5
2018-Jun-18 02:29N 37°29' E 000°40'713.5
2018-Jun-18 02:00N 37°29' E 000°32'713.4
2018-Jun-18 01:30N 37°29' E 000°23'713.4
2018-Jun-18 00:59N 37°29' E 000°15'713.5
2018-Jun-18 00:30N 37°29' E 000°06'713.2
2018-Jun-18 00:00N 37°28' W 000°02'713.3
2018-Jun-17 23:30N 37°28' W 000°10'713.9
2018-Jun-17 23:00N 37°28' W 000°19'714.0
2018-Jun-17 22:30N 37°28' W 000°28'713.9
2018-Jun-17 21:59N 37°28' W 000°37'713.6
2018-Jun-17 21:30N 37°29' W 000°45'612.3
2018-Jun-17 20:59N 37°30' W 000°53'510.9
2018-Jun-17 20:30N 37°31' W 000°59'3 6.2
2018-Jun-17 20:00N 37°34' W 000°59'1 0.0
2018-Jun-16 07:12N 37°34' W 000°58'0 0.2
2018-Jun-16 06:52N 37°34' W 000°58'1 2.0
2018-Jun-16 06:18N 37°34' W 000°59'1 2.7
2018-Jun-16 06:00N 37°33' W 000°60'2 3.8
2018-Jun-16 05:27N 37°33' W 001°02'1 0.1
2018-Jun-15 18:22N 37°32' W 001°04'0 0.1
2018-Jun-15 15:59N 37°32' W 001°04'4 7.6
2018-Jun-15 15:24N 37°28' W 001°05'512.3
2018-Jun-15 15:00N 37°24' W 001°09'612.4
2018-Jun-15 14:30N 37°19' W 001°14'20712.0
2018-Jun-14 21:17N 36°01' W 005°13'516.3
2018-Jun-14 21:00N 35°60' W 005°18'816.3
2018-Jun-14 20:30N 35°57' W 005°27'815.2
2018-Jun-14 19:58N 35°55' W 005°37'714.7
2018-Jun-14 19:29N 35°54' W 005°46'9413.4
2018-Jun-14 12:29N 35°56' W 007°42'612.9
2018-Jun-14 12:00N 35°56' W 007°50'812.9
2018-Jun-14 11:25N 35°57' W 007°59'812.6
2018-Jun-14 10:47N 35°57' W 008°09'512.6
2018-Jun-14 10:24N 35°57' W 008°15'512.9
2018-Jun-14 10:00N 35°57' W 008°21'712.3
2018-Jun-14 09:27N 35°57' W 008°30'7411.9
2018-Jun-14 03:13N 36°00' W 010°01'311.9
2018-Jun-14 02:59N 36°00' W 010°04'5211.8
2018-Jun-13 22:33N 36°02' W 011°09'111.6
2018-Jun-13 22:28N 36°02' W 011°10'5811.7
2018-Jun-13 17:31N 36°03' W 012°22'212.2
2018-Jun-13 17:19N 36°04' W 012°25'612.0
2018-Jun-13 16:47N 36°04' W 012°33'811.9
2018-Jun-13 16:05N 36°04' W 012°43'112.0
2018-Jun-13 16:00N 36°04' W 012°44'2411.9
2018-Jun-13 13:58N 36°05' W 013°14'611.8
2018-Jun-13 13:26N 36°05' W 013°22'712.0
2018-Jun-13 12:51N 36°05' W 013°30'40912.4
2018-Jun-12 03:51N 36°19' W 021°57'1312.3
2018-Jun-12 02:49N 36°19' W 022°13'412.5
2018-Jun-12 02:30N 36°19' W 022°17'612.6
2018-Jun-12 02:00N 36°20' W 022°25'712.6
2018-Jun-12 01:25N 36°20' W 022°34'612.3
2018-Jun-12 00:56N 36°20' W 022°42'512.4
2018-Jun-12 00:30N 36°20' W 022°48'612.5
2018-Jun-12 00:01N 36°20' W 022°56'612.7
2018-Jun-11 23:30N 36°21' W 023°04'612.4
2018-Jun-11 23:00N 36°21' W 023°12'612.2
2018-Jun-11 22:30N 36°21' W 023°19'612.5
2018-Jun-11 22:00N 36°21' W 023°27'612.8
2018-Jun-11 21:30N 36°21' W 023°35'612.7
2018-Jun-11 21:00N 36°21' W 023°43'612.6
2018-Jun-11 20:30N 36°21' W 023°51'612.5
2018-Jun-11 20:00N 36°22' W 023°58'612.3
2018-Jun-11 19:30N 36°22' W 024°06'612.4
2018-Jun-11 19:00N 36°22' W 024°14'612.4
2018-Jun-11 18:30N 36°23' W 024°21'612.2
2018-Jun-11 18:00N 36°23' W 024°29'612.3
2018-Jun-11 17:30N 36°23' W 024°37'612.2
2018-Jun-11 17:00N 36°23' W 024°44'612.1
2018-Jun-11 16:30N 36°24' W 024°52'612.1
2018-Jun-11 16:00N 36°24' W 024°59'612.4
2018-Jun-11 15:30N 36°24' W 025°07'612.2
2018-Jun-11 15:00N 36°24' W 025°14'611.9
2018-Jun-11 14:30N 36°25' W 025°22'612.0
2018-Jun-11 14:00N 36°25' W 025°29'612.3
2018-Jun-11 13:30N 36°25' W 025°37'612.3
2018-Jun-11 13:00N 36°26' W 025°45'612.4
2018-Jun-11 12:30N 36°26' W 025°52'612.5
2018-Jun-11 12:00N 36°26' W 025°60'612.4
2018-Jun-11 11:30N 36°27' W 026°08'612.5
2018-Jun-11 11:00N 36°27' W 026°15'712.5
2018-Jun-11 10:26N 36°27' W 026°24'612.4
2018-Jun-11 09:58N 36°27' W 026°32'612.5
2018-Jun-11 09:30N 36°28' W 026°39'612.8
2018-Jun-11 09:00N 36°28' W 026°47'612.6
2018-Jun-11 08:30N 36°29' W 026°54'612.2
2018-Jun-11 08:00N 36°29' W 027°02'612.5
2018-Jun-11 07:30N 36°29' W 027°10'612.8
2018-Jun-11 07:00N 36°29' W 027°18'612.7
2018-Jun-11 06:30N 36°29' W 027°26'612.6
2018-Jun-11 06:00N 36°30' W 027°33'612.5
2018-Jun-11 05:30N 36°30' W 027°41'612.7
2018-Jun-11 05:00N 36°30' W 027°49'612.8
2018-Jun-11 04:30N 36°31' W 027°57'712.8
2018-Jun-11 04:00N 36°31' W 028°05'612.7
2018-Jun-11 03:29N 36°31' W 028°13'612.4
2018-Jun-11 03:00N 36°31' W 028°21'612.4
2018-Jun-11 02:30N 36°31' W 028°28'612.6
2018-Jun-11 02:00N 36°31' W 028°36'612.8
2018-Jun-11 01:30N 36°32' W 028°44'712.9
2018-Jun-11 01:00N 36°32' W 028°52'612.8
2018-Jun-11 00:30N 36°32' W 029°00'612.9
2018-Jun-11 00:00N 36°32' W 029°08'613.0
2018-Jun-10 23:31N 36°32' W 029°16'712.9
2018-Jun-10 23:00N 36°32' W 029°24'712.8
2018-Jun-10 22:27N 36°32' W 029°33'612.5
2018-Jun-10 22:00N 36°32' W 029°40'712.8
2018-Jun-10 21:26N 36°33' W 029°49'712.7
2018-Jun-10 20:54N 36°33' W 029°58'712.5
2018-Jun-10 20:21N 36°33' W 030°06'612.4
2018-Jun-10 19:52N 36°33' W 030°14'4212.8
2018-Jun-10 16:37N 36°34' W 031°06'9712.6
2018-Jun-10 08:54N 36°33' W 033°07'  

Dump ship's entire track history